Home   Weather   Poland   Warsaw   Past weeks
Flag for Poland

Past Weather in Warsaw, Poland — Yesterday and Last 2 Weeks

Currently: 79 °F. Sunny. (Weather station: Warsaw Okecie Airport, Poland). See more current weather

Past Weather in Warsaw — Graph

°F

Warsaw Temperature Yesterday

Maximum temperature yesterday: 81 °F (at 3:30 pm)
Minimum temperature yesterday: 55 °F (at 5:00 am)
Average temperature yesterday: 69 °F

High & Low Weather Summary for the Past Weeks

 TemperatureHumidityPressure
High81 °F (May 11, 3:30 pm)100% (May 2, 12:00 pm)30.12 "Hg (May 2, 12:00 pm)
Low30 °F (Apr 28, 6:00 am)25% (Apr 28, 3:30 pm)29.42 "Hg (May 2, 3:30 pm)
Average52 °F64%29.84 "Hg
* Reported Apr 27 4:00 pm — May 12 4:00 pm, Warsaw. Weather by CustomWeather, © 2021

Note: Actual official high and low records may vary slightly from our data, if they occured in-between our weather recording intervals... More about our weather records

Warsaw Weather History for the Previous 24 Hours

Scroll right to see more
 ConditionsComfort  
Time TempWeatherWind HumidityBarometerVisibility
4:00 pm
Wed, May 12
79 °FSunny.21 mph32%29.74 "Hg10 mi
3:30 pm79 °FSunny.22 mph30%29.74 "Hg10 mi
3:00 pm79 °FSunny.24 mph32%29.74 "Hg10 mi
2:30 pm79 °FSunny.21 mph32%29.74 "Hg10 mi
2:00 pm79 °FSunny.22 mph32%29.74 "Hg10 mi
1:30 pm79 °FSunny.22 mph34%29.77 "Hg10 mi
1:00 pm79 °FSunny.22 mph32%29.77 "Hg10 mi
12:30 pm77 °FSunny.22 mph36%29.77 "Hg10 mi
12:00 pm77 °FSunny.23 mph32%29.77 "Hg10 mi
11:30 am75 °FSunny.22 mph34%29.77 "Hg10 mi
11:00 am73 °FSunny.21 mph36%29.77 "Hg10 mi
10:30 am73 °FSunny.22 mph36%29.77 "Hg10 mi
10:00 am72 °FSunny.20 mph38%29.77 "Hg10 mi
9:30 am70 °FSunny.20 mph35%29.80 "Hg10 mi
9:00 am68 °FSunny.17 mph38%29.80 "Hg10 mi
8:30 am66 °FSunny.15 mph40%29.80 "Hg10 mi
8:00 am64 °FSunny.14 mph43%29.80 "Hg10 mi
7:30 am61 °FSunny.14 mph45%29.80 "Hg10 mi
7:00 am59 °FSunny.13 mph48%29.80 "Hg10 mi
6:30 am59 °FSunny.12 mph48%29.80 "Hg10 mi
6:00 am57 °FSunny.12 mph48%29.80 "Hg10 mi
5:30 am57 °FSunny.10 mph48%29.80 "Hg10 mi
5:00 am57 °FSunny.14 mph48%29.80 "Hg10 mi
4:30 am57 °FClear.13 mph48%29.80 "Hg10 mi
4:00 am57 °FClear.10 mph44%29.80 "Hg10 mi
3:30 am59 °FClear.12 mph42%29.83 "Hg10 mi
3:00 am59 °FClear.13 mph42%29.83 "Hg10 mi
2:30 am61 °FClear.14 mph42%29.83 "Hg10 mi
2:00 am61 °FClear.12 mph42%29.83 "Hg10 mi
1:30 am61 °FClear.12 mph42%29.83 "Hg10 mi
1:00 am61 °FClear.10 mph45%29.83 "Hg10 mi
12:30 am63 °FClear.12 mph42%29.83 "Hg10 mi
12:00 am64 °FClear.13 mph43%29.86 "Hg10 mi
11:30 pm
Tue, May 11
66 °FClear.14 mph40%29.86 "Hg10 mi
11:00 pm66 °FClear.15 mph40%29.86 "Hg10 mi
10:30 pm68 °FClear.17 mph40%29.86 "Hg10 mi
10:00 pm68 °FClear.16 mph43%29.86 "Hg10 mi
9:30 pm68 °FClear.16 mph46%29.86 "Hg10 mi
9:00 pm70 °FClear.15 mph43%29.86 "Hg10 mi
8:30 pm70 °FClear.13 mph43%29.86 "Hg10 mi
8:00 pm73 °FSunny.18 mph38%29.86 "Hg10 mi
7:30 pm75 °FSunny.17 mph36%29.83 "Hg10 mi
7:00 pm75 °FSunny.17 mph36%29.86 "Hg10 mi
6:30 pm77 °FSunny.22 mph36%29.86 "Hg10 mi
6:00 pm77 °FSunny.20 mph39%29.86 "Hg10 mi
5:30 pm79 °FSunny.23 mph34%29.86 "Hg10 mi
5:00 pm79 °FSunny.18 mph37%29.86 "Hg10 mi
Weather by CustomWeather, © 2021

See weather overview